Sao Joaquim do Monte, Brazil
Current Conditions -  °F | °C
As of 2:00 PM on Saturday 25 Oct 2014 (Local Time) from SBRF Reporting Station
Broken Clouds Broken Clouds  
Wind Chill: 79°   Ceiling: 6000
Heat Index: 82°   Visibility: 6mi
Dew Point: 72°   Wind: 7mph
Humidity: 78%   Direction: 110°ESE
Pressure: 29.91"   Gusts: NA
Location:  8.42°S, 35.84°W
Report Text: SBRF 251700Z 11006KT 9999 SCT025 BKN060 26/22 Q1013
Loading
Personal Weather Stations






























Interactive Weather Map
Tropical Storm Tracking
New forecast layout! Learn more

10-Day Weather Forecast

Advertisements
Track Severe Weather on mobile